createdAt,value
2018-09-12T00:00:09.962Z,98489.42
2018-09-12T00:01:12.772Z,98487.70
2018-09-12T00:02:15.521Z,98484.02
2018-09-12T00:03:19.350Z,98480.84
2018-09-12T00:04:22.178Z,98485.07
2018-09-12T00:05:24.975Z,98485.02
2018-09-12T00:06:27.758Z,98477.61
2018-09-12T00:07:30.502Z,98485.95
2018-09-12T00:08:33.276Z,98492.70
2018-09-12T00:09:36.016Z,98485.48
2018-09-12T00:10:38.781Z,98488.00
2018-09-12T00:11:41.877Z,98483.94
2018-09-12T00:12:47.492Z,98485.73
2018-09-12T00:13:52.113Z,98489.49
2018-09-12T00:14:54.860Z,98485.95
2018-09-12T00:15:57.763Z,98484.59
2018-09-12T00:17:01.696Z,98478.73
2018-09-12T00:18:04.456Z,98482.05
2018-09-12T00:19:07.676Z,98475.83
2018-09-12T00:20:10.549Z,98479.17
2018-09-12T00:21:14.322Z,98482.85
2018-09-12T00:22:17.090Z,98481.84
2018-09-12T00:23:20.519Z,98476.25
2018-09-12T00:24:23.309Z,98475.34
2018-09-12T00:25:26.343Z,98472.03
2018-09-12T00:26:29.103Z,98474.22
2018-09-12T00:27:31.932Z,98477.40
2018-09-12T00:28:34.682Z,98474.41
2018-09-12T00:29:37.431Z,98473.52
2018-09-12T00:30:40.221Z,98474.30
2018-09-12T00:31:43.273Z,98472.73
2018-09-12T00:32:46.797Z,98467.44
2018-09-12T00:33:50.266Z,98464.97
2018-09-12T00:34:54.682Z,98465.29
2018-09-12T00:35:57.530Z,98468.97
2018-09-12T00:37:00.292Z,98467.92
2018-09-12T00:38:03.611Z,98468.03
2018-09-12T00:39:06.367Z,98464.27
2018-09-12T00:40:09.187Z,98468.41
2018-09-12T00:41:11.935Z,98465.20
2018-09-12T00:42:14.712Z,98463.25
2018-09-12T00:43:17.468Z,98462.00
2018-09-12T00:44:20.514Z,98456.52
2018-09-12T00:45:23.464Z,98462.23
2018-09-12T00:46:26.187Z,98463.84
2018-09-12T00:47:29.067Z,98461.87
2018-09-12T00:48:32.140Z,98458.46
2018-09-12T00:49:35.030Z,98459.69
2018-09-12T00:50:39.704Z,98449.77
2018-09-12T00:51:42.454Z,98454.23
2018-09-12T00:52:45.648Z,98452.52
2018-09-12T00:53:48.374Z,98453.06
2018-09-12T00:54:51.229Z,98444.97
2018-09-12T00:55:54.045Z,98447.70
2018-09-12T00:56:57.089Z,98447.59
2018-09-12T00:57:59.836Z,98452.69
2018-09-12T00:59:02.660Z,98446.67
2018-09-12T01:00:05.396Z,98443.84
2018-09-12T01:01:08.725Z,98444.41
2018-09-12T01:02:11.610Z,98446.33
2018-09-12T01:03:14.627Z,98443.84
2018-09-12T01:04:17.359Z,98446.81
2018-09-12T01:05:20.093Z,98447.38
2018-09-12T01:06:22.915Z,98449.42
2018-09-12T01:07:25.646Z,98449.61
2018-09-12T01:08:28.384Z,98455.38
2018-09-12T01:09:31.725Z,98446.23
2018-09-12T01:10:34.574Z,98445.22
2018-09-12T01:11:37.305Z,98450.12
2018-09-12T01:12:40.076Z,98441.89
2018-09-12T01:13:42.838Z,98443.61
2018-09-12T01:14:45.580Z,98443.73
2018-09-12T01:15:48.826Z,98439.95
2018-09-12T01:16:55.381Z,98441.44
2018-09-12T01:17:58.695Z,98439.83
2018-09-12T01:19:01.480Z,98438.58
2018-09-12T01:20:04.217Z,98443.26
2018-09-12T01:21:06.943Z,98431.97
2018-09-12T01:22:09.983Z,98441.89
2018-09-12T01:23:12.756Z,98436.64
2018-09-12T01:24:15.495Z,98438.00
2018-09-12T01:25:18.685Z,98441.66
2018-09-12T01:26:21.435Z,98435.15
2018-09-12T01:27:24.166Z,98445.08
2018-09-12T01:28:27.206Z,98433.67
2018-09-12T01:29:29.960Z,98436.77
2018-09-12T01:30:32.761Z,98437.11
2018-09-12T01:31:35.487Z,98436.53
2018-09-12T01:32:38.230Z,98435.52
2018-09-12T01:33:41.260Z,98432.31
2018-09-12T01:34:44.274Z,98439.63
2018-09-12T01:35:47.036Z,98431.06
2018-09-12T01:36:49.786Z,98432.43
2018-09-12T01:37:52.697Z,98432.42
2018-09-12T01:38:55.434Z,98433.91
2018-09-12T01:39:58.169Z,98430.47
2018-09-12T01:41:01.314Z,98431.84
2018-09-12T01:42:04.293Z,98435.33
2018-09-12T01:43:07.070Z,98435.79
2018-09-12T01:44:09.806Z,98430.53
2018-09-12T01:45:12.671Z,98431.11
2018-09-12T01:46:15.391Z,98426.17
2018-09-12T01:47:18.417Z,98422.16
2018-09-12T01:48:21.155Z,98426.58
2018-09-12T01:49:23.953Z,98424.79
2018-09-12T01:50:26.827Z,98427.19
2018-09-12T01:51:29.585Z,98424.80
2018-09-12T01:52:32.504Z,98422.75
2018-09-12T01:53:35.602Z,98424.79
2018-09-12T01:54:38.400Z,98419.41
2018-09-12T01:55:41.274Z,98423.23
2018-09-12T01:56:44.009Z,98417.16
2018-09-12T01:57:46.802Z,98413.61
2018-09-12T01:58:49.601Z,98418.42
2018-09-12T01:59:53.359Z,98415.92
2018-09-12T02:00:56.114Z,98420.11
2018-09-12T02:01:58.844Z,98410.75
2018-09-12T02:03:01.698Z,98414.95
2018-09-12T02:04:04.590Z,98417.72
2018-09-12T02:05:07.411Z,98417.61
2018-09-12T02:06:10.463Z,98419.81
2018-09-12T02:07:13.971Z,98415.39
2018-09-12T02:08:16.725Z,98420.79
2018-09-12T02:09:19.709Z,98423.19
2018-09-12T02:10:22.446Z,98423.08
2018-09-12T02:11:25.192Z,98421.05
2018-09-12T02:12:28.234Z,98417.21
2018-09-12T02:13:31.668Z,98419.15
2018-09-12T02:14:34.437Z,98429.31
2018-09-12T02:15:37.203Z,98430.57
2018-09-12T02:16:40.770Z,98427.94
2018-09-12T02:17:43.547Z,98424.39
2018-09-12T02:18:46.976Z,98422.82
2018-09-12T02:19:49.928Z,98415.53
2018-09-12T02:20:52.758Z,98416.22
2018-09-12T02:21:55.940Z,98424.08
2018-09-12T02:22:58.765Z,98423.02
2018-09-12T02:24:02.761Z,98419.60
2018-09-12T02:25:06.602Z,98424.47
2018-09-12T02:26:09.377Z,98425.97
2018-09-12T02:27:12.155Z,98419.75
2018-09-12T02:28:16.471Z,98418.05
2018-09-12T02:29:19.348Z,98416.34
2018-09-12T02:30:22.766Z,98416.11
2018-09-12T02:31:25.960Z,98416.34
2018-09-12T02:32:28.693Z,98416.00
2018-09-12T02:33:31.652Z,98422.61
2018-09-12T02:34:34.373Z,98419.20
2018-09-12T02:35:41.297Z,98415.77
2018-09-12T02:36:44.506Z,98419.99
2018-09-12T02:37:47.460Z,98418.41
2018-09-12T02:38:50.450Z,98417.63
2018-09-12T02:39:53.278Z,98412.91
2018-09-12T02:40:56.200Z,98420.30
2018-09-12T02:41:58.937Z,98417.67
2018-09-12T02:43:02.007Z,98415.85
2018-09-12T02:44:05.935Z,98412.47
2018-09-12T02:45:08.925Z,98413.63
2018-09-12T02:46:11.696Z,98413.63
2018-09-12T02:47:19.377Z,98404.58
2018-09-12T02:48:22.568Z,98408.09
2018-09-12T02:49:25.392Z,98407.05
2018-09-12T02:50:28.133Z,98408.05
2018-09-12T02:51:30.871Z,98405.90
2018-09-12T02:52:33.585Z,98413.11
2018-09-12T02:53:36.337Z,98409.68
2018-09-12T02:54:39.517Z,98409.35
2018-09-12T02:55:42.268Z,98410.38
2018-09-12T02:56:45.094Z,98414.04
2018-09-12T02:57:47.867Z,98414.16
2018-09-12T02:58:50.730Z,98409.61
2018-09-12T03:02:15.228Z,98405.38
2018-09-12T03:03:17.946Z,98404.77
2018-09-12T03:05:34.463Z,98403.98
2018-09-12T03:06:37.231Z,98399.83
2018-09-12T03:07:40.428Z,98401.20
2018-09-12T03:08:43.197Z,98400.79
2018-09-12T03:09:46.041Z,98401.55
2018-09-12T03:10:48.953Z,98407.50
2018-09-12T03:11:54.734Z,98402.01
2018-09-12T03:12:57.628Z,98407.74
2018-09-12T03:14:00.715Z,98401.19
2018-09-12T03:15:03.458Z,98396.98
2018-09-12T03:16:06.209Z,98395.83
2018-09-12T03:17:08.980Z,98393.87
2018-09-12T03:18:11.752Z,98396.30
2018-09-12T03:19:14.506Z,98394.73
2018-09-12T03:20:17.542Z,98393.02
2018-09-12T03:21:20.314Z,98391.75
2018-09-12T03:22:23.062Z,98396.88
2018-09-12T03:23:25.856Z,98387.17
2018-09-12T03:24:28.707Z,98393.70
2018-09-12T03:25:31.455Z,98387.86
2018-09-12T03:26:34.927Z,98389.64
2018-09-12T03:27:37.667Z,98383.45
2018-09-12T03:28:40.414Z,98388.95
2018-09-12T03:29:43.213Z,98388.52
2018-09-12T03:30:47.584Z,98386.49
2018-09-12T03:31:50.354Z,98381.09
2018-09-12T03:32:53.562Z,98387.63
2018-09-12T03:33:56.361Z,98392.58
2018-09-12T03:34:59.073Z,98384.48
2018-09-12T03:36:01.789Z,98386.49
2018-09-12T03:37:04.596Z,98382.55
2018-09-12T03:38:07.342Z,98385.55
2018-09-12T03:39:11.863Z,98378.52
2018-09-12T03:40:14.733Z,98384.90
2018-09-12T03:41:17.481Z,98381.03
2018-09-12T03:42:20.292Z,98378.38
2018-09-12T03:43:23.825Z,98374.25
2018-09-12T03:44:26.619Z,98380.66
2018-09-12T03:45:29.735Z,98374.84
2018-09-12T03:46:32.491Z,98374.28
2018-09-12T03:47:35.294Z,98376.25
2018-09-12T03:48:38.165Z,98372.80
2018-09-12T03:49:41.041Z,98373.72
2018-09-12T03:50:43.914Z,98374.41
2018-09-12T03:51:47.196Z,98378.83
2018-09-12T03:52:49.918Z,98371.08
2018-09-12T03:53:52.681Z,98376.97
2018-09-12T03:54:55.401Z,98371.97
2018-09-12T03:55:58.116Z,98376.77
2018-09-12T03:57:00.900Z,98372.86
2018-09-12T03:58:04.076Z,98377.92
2018-09-12T03:59:06.854Z,98371.86
2018-09-12T04:00:10.065Z,98374.86
2018-09-12T04:01:12.873Z,98378.05
2018-09-12T04:02:15.636Z,98374.59
2018-09-12T04:03:20.003Z,98373.81
2018-09-12T04:04:22.750Z,98374.70
2018-09-12T04:05:25.501Z,98373.31
2018-09-12T04:06:28.864Z,98379.27
2018-09-12T04:07:31.600Z,98382.55
2018-09-12T04:08:34.340Z,98377.09
2018-09-12T04:09:37.406Z,98382.33
2018-09-12T04:10:40.665Z,98377.78
2018-09-12T04:11:44.176Z,98386.34
2018-09-12T04:12:46.921Z,98387.47
2018-09-12T04:13:49.648Z,98385.05
2018-09-12T04:14:52.424Z,98383.89
2018-09-12T04:15:55.682Z,98385.36
2018-09-12T04:16:58.562Z,98386.42
2018-09-12T04:18:01.284Z,98385.38
2018-09-12T04:19:04.082Z,98388.47
2018-09-12T04:20:07.347Z,98383.75
2018-09-12T04:21:10.905Z,98387.63
2018-09-12T04:22:14.520Z,98383.89
2018-09-12T04:23:17.750Z,98382.83
2018-09-12T04:24:20.746Z,98385.98
2018-09-12T04:25:23.541Z,98394.84
2018-09-12T04:26:26.308Z,98386.05
2018-09-12T04:27:29.157Z,98386.88
2018-09-12T04:28:32.389Z,98376.76
2018-09-12T04:29:35.146Z,98377.41
2018-09-12T04:30:37.937Z,98378.81
2018-09-12T04:31:40.663Z,98380.83
2018-09-12T04:32:43.437Z,98377.99
2018-09-12T04:33:46.186Z,98378.70
2018-09-12T04:34:49.458Z,98379.56
2018-09-12T04:35:52.182Z,98381.30
2018-09-12T04:36:54.971Z,98379.19
2018-09-12T04:37:57.745Z,98383.01
2018-09-12T04:39:00.503Z,98380.17
2018-09-12T04:40:03.234Z,98383.94
2018-09-12T04:41:07.242Z,98377.44
2018-09-12T04:42:10.009Z,98380.59
2018-09-12T04:43:12.854Z,98377.44
2018-09-12T04:44:15.642Z,98377.85
2018-09-12T04:45:18.453Z,98379.70
2018-09-12T04:46:21.240Z,98377.45
2018-09-12T04:47:24.329Z,98382.26
2018-09-12T04:48:27.742Z,98383.18
2018-09-12T04:49:30.570Z,98382.31
2018-09-12T04:50:33.346Z,98379.20
2018-09-12T04:51:36.191Z,98382.31
2018-09-12T04:52:39.017Z,98377.83
2018-09-12T04:53:42.388Z,98380.52
2018-09-12T04:54:45.145Z,98378.82
2018-09-12T04:55:47.901Z,98381.30
2018-09-12T04:56:50.705Z,98386.71
2018-09-12T04:57:54.184Z,98375.44
2018-09-12T04:58:56.954Z,98390.31
2018-09-12T05:00:00.078Z,98383.72
2018-09-12T05:01:02.874Z,98387.27
2018-09-12T05:02:05.943Z,98388.74
2018-09-12T05:03:08.696Z,98388.30
2018-09-12T05:04:11.432Z,98390.59
2018-09-12T05:05:14.281Z,98389.47
2018-09-12T05:06:17.016Z,98388.89
2018-09-12T05:07:19.796Z,98387.11
2018-09-12T05:08:22.758Z,98388.30
2018-09-12T05:09:26.555Z,98387.38
2018-09-12T05:10:29.440Z,98389.88
2018-09-12T05:11:32.528Z,98389.60
2018-09-12T05:12:35.330Z,98395.64
2018-09-12T05:13:38.092Z,98393.78
2018-09-12T05:14:40.834Z,98392.98
2018-09-12T05:15:43.570Z,98392.44
2018-09-12T05:16:47.119Z,98392.90
2018-09-12T05:17:51.027Z,98392.86
2018-09-12T05:18:53.829Z,98397.44
2018-09-12T05:19:56.692Z,98389.59
2018-09-12T05:21:00.829Z,98394.81
2018-09-12T05:22:04.594Z,98391.05
2018-09-12T05:23:10.700Z,98387.44
2018-09-12T05:24:13.816Z,98389.48
2018-09-12T05:25:16.584Z,98390.11
2018-09-12T05:26:20.300Z,98388.22
2018-09-12T05:27:23.852Z,98387.93
2018-09-12T05:28:26.656Z,98393.49
2018-09-12T05:29:29.723Z,98388.86
2018-09-12T05:30:33.583Z,98392.03
2018-09-12T05:33:47.004Z,98388.58
2018-09-12T05:34:50.427Z,98388.33
2018-09-12T05:35:53.229Z,98390.91
2018-09-12T05:36:56.318Z,98386.51
2018-09-12T05:37:59.089Z,98392.84
2018-09-12T05:39:02.006Z,98392.80
2018-09-12T05:40:05.329Z,98391.30
2018-09-12T05:41:08.119Z,98391.73
2018-09-12T05:42:11.973Z,98388.23
2018-09-12T05:43:15.068Z,98387.73
2018-09-12T05:44:17.797Z,98391.77
2018-09-12T05:45:20.615Z,98390.89
2018-09-12T05:46:24.210Z,98388.88
2018-09-12T05:47:28.706Z,98391.80
2018-09-12T05:48:31.580Z,98395.52
2018-09-12T05:49:34.756Z,98383.25
2018-09-12T05:50:37.525Z,98389.57
2018-09-12T05:51:40.252Z,98392.61
2018-09-12T05:52:42.993Z,98392.58
2018-09-12T05:53:46.393Z,98391.14
2018-09-12T05:54:49.157Z,98388.23
2018-09-12T05:55:52.447Z,98389.41
2018-09-12T05:56:55.170Z,98390.06
2018-09-12T05:57:57.933Z,98389.04
2018-09-12T05:59:00.789Z,98381.81
2018-09-12T06:00:03.565Z,98390.64
2018-09-12T06:01:06.310Z,98389.24
2018-09-12T06:02:09.340Z,98388.45
2018-09-12T06:03:12.070Z,98390.38
2018-09-12T06:04:14.890Z,98387.39
2018-09-12T06:05:17.701Z,98387.11
2018-09-12T06:06:20.535Z,98385.09
2018-09-12T06:07:23.774Z,98385.22
2018-09-12T06:08:26.946Z,98382.87
2018-09-12T06:09:30.523Z,98381.83
2018-09-12T06:10:34.372Z,98383.88
2018-09-12T06:11:37.745Z,98377.00
2018-09-12T06:12:41.490Z,98379.66
2018-09-12T06:13:44.868Z,98378.05
2018-09-12T06:14:49.628Z,98377.20
2018-09-12T06:15:52.492Z,98366.70
2018-09-12T06:16:55.271Z,98374.91
2018-09-12T06:17:58.238Z,98373.16
2018-09-12T06:19:02.535Z,98372.14
2018-09-12T06:20:05.378Z,98375.27
2018-09-12T06:21:08.413Z,98376.58
2018-09-12T06:22:11.231Z,98371.16
2018-09-12T06:23:14.253Z,98369.77
2018-09-12T06:24:17.319Z,98371.86
2018-09-12T06:25:21.680Z,98369.91
2018-09-12T06:26:24.438Z,98369.59
2018-09-12T06:27:29.830Z,98370.78
2018-09-12T06:28:33.445Z,98368.76
2018-09-12T06:29:37.045Z,98367.61
2018-09-12T06:30:39.897Z,98364.19
2018-09-12T06:31:43.637Z,98371.43
2018-09-12T06:32:46.371Z,98372.74
2018-09-12T06:33:49.649Z,98375.09
2018-09-12T06:34:52.482Z,98374.05
2018-09-12T06:35:58.013Z,98373.86
2018-09-12T06:37:00.796Z,98371.11
2018-09-12T06:38:03.560Z,98366.34
2018-09-12T06:39:06.524Z,98378.46
2018-09-12T06:40:09.601Z,98372.13
2018-09-12T06:41:12.511Z,98373.63
2018-09-12T06:42:16.358Z,98378.08
2018-09-12T06:43:20.009Z,98377.48
2018-09-12T06:44:23.109Z,98382.65
2018-09-12T06:45:26.653Z,98386.22
2018-09-12T06:46:30.875Z,98383.84
2018-09-12T06:47:34.206Z,98379.44
2018-09-12T06:48:37.220Z,98382.75
2018-09-12T06:49:40.010Z,98382.31
2018-09-12T06:50:43.901Z,98392.78
2018-09-12T06:51:46.669Z,98383.38
2018-09-12T06:52:50.564Z,98384.47
2018-09-12T06:53:53.401Z,98381.31
2018-09-12T06:54:57.099Z,98379.55
2018-09-12T06:55:59.921Z,98384.31
2018-09-12T06:57:06.549Z,98383.83
2018-09-12T06:58:09.300Z,98382.17
2018-09-12T06:59:12.630Z,98384.93
2018-09-12T07:00:15.616Z,98386.59
2018-09-12T07:01:18.751Z,98384.95
2018-09-12T07:02:22.960Z,98378.55
2018-09-12T07:03:26.555Z,98384.70
2018-09-12T07:04:30.890Z,98386.76
2018-09-12T07:05:34.719Z,98384.45
2018-09-12T07:06:40.243Z,98379.99
2018-09-12T07:07:43.140Z,98381.78
2018-09-12T07:08:46.137Z,98380.02
2018-09-12T07:09:50.383Z,98374.00
2018-09-12T07:10:53.212Z,98369.33
2018-09-12T07:11:57.368Z,98378.64
2018-09-12T07:13:00.250Z,98372.82
2018-09-12T07:14:03.282Z,98371.94
2018-09-12T07:15:08.177Z,98373.88
2018-09-12T07:16:11.119Z,98375.25
2018-09-12T07:17:16.661Z,98379.17
2018-09-12T07:18:20.674Z,98378.97
2018-09-12T07:19:24.441Z,98374.22
2018-09-12T07:20:28.408Z,98375.42
2018-09-12T07:21:31.289Z,98373.52
2018-09-12T07:22:34.479Z,98365.57
2018-09-12T07:23:37.878Z,98363.43
2018-09-12T07:24:43.655Z,98359.88
2018-09-12T07:25:46.466Z,98360.34
2018-09-12T07:26:49.804Z,98362.94
2018-09-12T07:27:52.908Z,98366.80
2018-09-12T07:28:56.765Z,98362.13
2018-09-12T07:30:01.669Z,98361.22
2018-09-12T07:31:05.165Z,98363.67
2018-09-12T07:32:08.452Z,98361.34
2018-09-12T07:33:12.504Z,98362.56
2018-09-12T07:34:16.766Z,98362.33
2018-09-12T07:35:20.817Z,98358.94
2018-09-12T07:36:23.753Z,98365.09
2018-09-12T07:37:27.339Z,98362.52
2018-09-12T07:38:30.576Z,98363.50
2018-09-12T07:39:33.755Z,98371.63
2018-09-12T07:40:41.578Z,98372.38
2018-09-12T07:41:45.091Z,98373.38
2018-09-12T07:42:51.057Z,98371.45
2018-09-12T07:43:55.122Z,98378.24
2018-09-12T07:44:58.377Z,98367.33
2018-09-12T07:46:02.535Z,98374.45
2018-09-12T07:47:06.000Z,98370.51
2018-09-12T07:48:08.906Z,98364.34
2018-09-12T07:49:11.748Z,98363.94
2018-09-12T07:50:14.900Z,98367.09
2018-09-12T07:51:18.109Z,98369.05
2018-09-12T07:52:21.476Z,98364.92
2018-09-12T07:53:24.629Z,98367.46
2018-09-12T07:54:28.005Z,98374.59
2018-09-12T07:55:31.109Z,98369.43
2018-09-12T07:56:35.801Z,98366.58
2018-09-12T07:57:38.620Z,98371.86
2018-09-12T07:58:41.649Z,98372.33
2018-09-12T07:59:44.403Z,98371.07
2018-09-12T08:00:47.596Z,98373.59
2018-09-12T08:01:51.202Z,98376.58
2018-09-12T08:02:54.457Z,98375.80
2018-09-12T08:03:57.231Z,98373.08
2018-09-12T08:05:00.110Z,98373.24
2018-09-12T08:06:08.074Z,98373.43
2018-09-12T08:07:11.364Z,98375.38
2018-09-12T08:08:14.140Z,98378.80
2018-09-12T08:09:17.423Z,98373.39
2018-09-12T08:10:20.213Z,98377.55
2018-09-12T08:11:23.001Z,98375.89
2018-09-12T08:12:25.742Z,98376.77
2018-09-12T08:13:28.611Z,98379.73
2018-09-12T08:14:31.823Z,98375.39
2018-09-12T08:15:35.009Z,98378.24
2018-09-12T08:16:37.828Z,98381.19
2018-09-12T08:17:41.119Z,98379.13
2018-09-12T08:18:43.896Z,98380.30
2018-09-12T08:19:47.591Z,98380.45
2018-09-12T08:20:50.563Z,98382.27
2018-09-12T08:21:54.485Z,98377.89
2018-09-12T08:22:57.544Z,98374.61
2018-09-12T08:24:00.332Z,98372.35
2018-09-12T08:25:03.118Z,98374.44
2018-09-12T08:26:06.871Z,98376.56
2018-09-12T08:27:10.661Z,98374.77
2018-09-12T08:28:14.400Z,98366.63
2018-09-12T08:29:20.083Z,98372.58
2018-09-12T08:30:22.902Z,98377.29
2018-09-12T08:31:27.075Z,98374.30
2018-09-12T08:32:33.529Z,98372.49
2018-09-12T08:33:36.332Z,98371.14
2018-09-12T08:34:41.594Z,98371.73
2018-09-12T08:35:44.366Z,98374.77
2018-09-12T08:36:47.441Z,98375.92
2018-09-12T08:37:50.256Z,98373.61
2018-09-12T08:38:53.765Z,98378.25
2018-09-12T08:39:58.067Z,98373.55
2018-09-12T08:41:01.170Z,98372.78
2018-09-12T08:42:04.008Z,98370.38
2018-09-12T08:43:07.861Z,98373.84
2018-09-12T08:44:11.283Z,98376.24
2018-09-12T08:45:14.994Z,98377.73
2018-09-12T08:46:17.857Z,98372.11
2018-09-12T08:47:21.252Z,98372.30
2018-09-12T08:48:25.327Z,98372.54
2018-09-12T08:49:30.700Z,98370.59
2018-09-12T08:50:33.546Z,98365.73
2018-09-12T08:51:36.353Z,98372.13
2018-09-12T08:52:39.328Z,98364.40
2018-09-12T08:53:42.623Z,98372.08
2018-09-12T08:54:47.288Z,98372.23
2018-09-12T08:55:50.637Z,98368.95
2018-09-12T08:56:53.795Z,98365.29
2018-09-12T08:57:57.469Z,98364.69
2018-09-12T08:59:00.231Z,98364.86
2018-09-12T09:00:04.327Z,98365.31
2018-09-12T09:01:07.086Z,98358.95
2018-09-12T09:02:10.629Z,98361.94
2018-09-12T09:03:15.914Z,98365.30
2018-09-12T09:04:19.844Z,98364.79
2018-09-12T09:05:22.608Z,98363.19
2018-09-12T09:06:26.611Z,98365.01
2018-09-12T09:07:30.974Z,98361.59
2018-09-12T09:08:33.793Z,98363.95
2018-09-12T09:09:37.237Z,98368.70
2018-09-12T09:10:41.516Z,98364.08
2018-09-12T09:11:44.361Z,98370.03
2018-09-12T09:12:47.493Z,98362.53
2018-09-12T09:13:50.396Z,98363.59
2018-09-12T09:14:53.159Z,98370.57
2018-09-12T09:15:55.919Z,98359.44
2018-09-12T09:16:58.705Z,98355.86
2018-09-12T09:18:03.355Z,98361.75
2018-09-12T09:19:06.495Z,98359.35
2018-09-12T09:20:09.484Z,98364.22
2018-09-12T09:21:12.290Z,98357.89
2018-09-12T09:22:15.299Z,98364.41
2018-09-12T09:23:18.088Z,98367.81
2018-09-12T09:24:23.612Z,98364.17
2018-09-12T09:25:26.721Z,98359.64
2018-09-12T09:26:30.281Z,98364.17
2018-09-12T09:27:33.079Z,98361.19
2018-09-12T09:28:35.878Z,98367.43
2018-09-12T09:29:38.696Z,98359.26
2018-09-12T09:30:42.917Z,98373.91
2018-09-12T09:31:46.282Z,98379.45
2018-09-12T09:32:49.147Z,98366.31
2018-09-12T09:33:53.543Z,98364.41
2018-09-12T09:34:58.864Z,98366.03
2018-09-12T09:36:08.469Z,98367.23
2018-09-12T09:37:22.129Z,98366.41
2018-09-12T09:38:25.851Z,98365.53
2018-09-12T09:39:29.427Z,98367.88
2018-09-12T09:40:32.201Z,98358.12
2018-09-12T09:41:36.008Z,98363.14
2018-09-12T09:42:39.694Z,98370.63
2018-09-12T09:44:52.434Z,98362.59
2018-09-12T09:45:56.659Z,98361.13
2018-09-12T09:47:03.272Z,98351.11
2018-09-12T09:48:06.235Z,98356.22
2018-09-12T09:49:09.501Z,98352.32
2018-09-12T09:50:12.325Z,98360.09
2018-09-12T09:51:15.817Z,98348.75
2018-09-12T09:52:19.267Z,98360.68
2018-09-12T09:53:22.176Z,98378.05
2018-09-12T09:54:26.065Z,98364.22
2018-09-12T09:55:29.226Z,98357.93
2018-09-12T09:56:32.160Z,98352.04
2018-09-12T09:57:35.278Z,98352.71
2018-09-12T09:58:40.324Z,98359.31
2018-09-12T09:59:43.400Z,98356.43
2018-09-12T10:00:53.354Z,98357.89
2018-09-12T10:02:01.129Z,98360.53
2018-09-12T10:03:08.968Z,98351.70
2018-09-12T10:04:11.984Z,98353.13
2018-09-12T10:05:19.613Z,98368.28
2018-09-12T10:06:26.373Z,98358.66
2018-09-12T10:07:34.741Z,98357.01
2018-09-12T10:08:42.403Z,98355.27
2018-09-12T10:09:51.323Z,98371.25
2018-09-12T10:10:54.172Z,98370.42
2018-09-12T10:11:57.019Z,98360.64
2018-09-12T10:13:01.798Z,98363.45
2018-09-12T10:14:05.749Z,98344.83
2018-09-12T10:15:09.577Z,98345.89
2018-09-12T10:16:12.607Z,98342.03
2018-09-12T10:17:15.390Z,98348.56
2018-09-12T10:18:18.308Z,98343.18
2018-09-12T10:19:21.075Z,98342.28
2018-09-12T10:20:24.808Z,98345.51
2018-09-12T10:21:27.710Z,98348.00
2018-09-12T10:22:31.417Z,98349.20
2018-09-12T10:23:34.359Z,98353.42
2018-09-12T10:24:37.139Z,98351.14
2018-09-12T10:25:39.982Z,98351.76
2018-09-12T10:26:43.314Z,98340.95
2018-09-12T10:27:47.375Z,98349.95
2018-09-12T10:28:50.164Z,98355.58
2018-09-12T10:29:53.092Z,98350.88
2018-09-12T10:32:49.372Z,98343.20
2018-09-12T10:33:52.630Z,98350.30
2018-09-12T10:34:56.381Z,98353.40
2018-09-12T10:35:59.474Z,98344.88
2018-09-12T10:37:02.443Z,98347.13
2018-09-12T10:38:06.168Z,98354.30
2018-09-12T10:39:09.185Z,98346.09
2018-09-12T10:40:12.618Z,98334.67
2018-09-12T10:41:15.417Z,98346.81
2018-09-12T10:42:18.222Z,98351.61
2018-09-12T10:43:21.478Z,98344.12
2018-09-12T10:44:24.452Z,98343.48
2018-09-12T10:45:27.543Z,98343.47
2018-09-12T10:46:31.612Z,98347.20
2018-09-12T10:47:34.431Z,98349.34
2018-09-12T10:48:37.661Z,98344.06
2018-09-12T10:49:41.042Z,98344.88
2018-09-12T10:50:44.457Z,98351.23
2018-09-12T10:51:48.898Z,98345.47
2018-09-12T10:52:52.374Z,98336.71
2018-09-12T10:53:56.078Z,98343.20
2018-09-12T10:54:59.980Z,98352.55
2018-09-12T10:56:02.931Z,98349.50
2018-09-12T10:57:06.234Z,98350.69
2018-09-12T10:58:09.058Z,98357.70
2018-09-12T10:59:12.473Z,98353.42
2018-09-12T11:00:16.703Z,98352.67
2018-09-12T11:01:20.050Z,98355.39
2018-09-12T11:02:23.237Z,98357.63
2018-09-12T11:03:30.699Z,98352.39
2018-09-12T11:04:33.983Z,98353.98
2018-09-12T11:05:41.972Z,98344.41
2018-09-12T11:06:45.884Z,98335.20
2018-09-12T11:07:49.135Z,98343.97
2018-09-12T11:08:51.911Z,98341.95
2018-09-12T11:09:54.922Z,98337.55
2018-09-12T11:10:58.081Z,98333.28
2018-09-12T11:12:01.752Z,98352.19
2018-09-12T11:13:04.623Z,98338.84
2018-09-12T11:14:07.722Z,98354.35
2018-09-12T11:15:11.547Z,98339.41
2018-09-12T11:16:14.473Z,98328.04
2018-09-12T11:17:19.705Z,98341.72
2018-09-12T11:18:24.505Z,98332.13
2018-09-12T11:19:27.272Z,98338.25
2018-09-12T11:20:31.558Z,98334.08
2018-09-12T11:21:34.623Z,98333.05
2018-09-12T11:22:37.448Z,98336.36
2018-09-12T11:23:40.841Z,98296.96
2018-09-12T11:24:47.856Z,98343.70
2018-09-12T11:25:51.310Z,98346.22
2018-09-12T11:26:54.854Z,98347.16
2018-09-12T11:27:59.037Z,98345.38
2018-09-12T11:29:02.761Z,98331.88
2018-09-12T11:30:05.946Z,98341.30
2018-09-12T11:31:08.743Z,98346.69
2018-09-12T11:32:11.720Z,98341.12
2018-09-12T11:33:16.718Z,98342.53
2018-09-12T11:34:19.657Z,98343.73
2018-09-12T11:35:22.692Z,98340.46
2018-09-12T11:36:26.449Z,98342.21
2018-09-12T11:37:29.229Z,98325.93
2018-09-12T11:38:33.003Z,98344.40
2018-09-12T11:39:35.768Z,98345.70
2018-09-12T11:40:38.520Z,98340.58
2018-09-12T11:41:41.893Z,98332.67
2018-09-12T11:42:47.313Z,98338.54
2018-09-12T11:43:51.373Z,98327.77
2018-09-12T11:44:55.599Z,98328.47
2018-09-12T11:45:59.653Z,98340.22
2018-09-12T11:47:02.432Z,98346.78
2018-09-12T11:48:05.761Z,98326.88
2018-09-12T11:49:08.601Z,98349.94
2018-09-12T11:50:11.374Z,98341.98
2018-09-12T11:51:14.434Z,98338.06
2018-09-12T11:52:17.877Z,98319.52
2018-09-12T11:53:21.597Z,98341.58
2018-09-12T11:54:24.728Z,98325.18
2018-09-12T11:55:27.511Z,98341.13
2018-09-12T11:56:31.438Z,98327.48
2018-09-12T11:57:34.207Z,98331.52
2018-09-12T11:58:37.066Z,98339.22
2018-09-12T11:59:39.938Z,98330.88
2018-09-12T12:00:43.803Z,98340.19
2018-09-12T12:01:47.362Z,98328.09
2018-09-12T12:02:50.571Z,98337.81
2018-09-12T12:05:08.156Z,98337.20
2018-09-12T12:06:11.379Z,98343.47
2018-09-12T12:07:14.923Z,98342.23
2018-09-12T12:08:18.006Z,98340.58
2018-09-12T12:09:21.268Z,98339.88
2018-09-12T12:10:24.852Z,98338.06
2018-09-12T18:50:20.537Z,98357.92
2018-09-12T18:51:25.327Z,98355.45
2018-09-12T18:52:28.356Z,98352.53
2018-09-12T18:53:33.002Z,98355.19
2018-09-12T18:54:37.403Z,98354.78
2018-09-12T18:55:41.792Z,98354.06
2018-09-12T18:56:44.634Z,98363.30
2018-09-12T18:57:48.696Z,98361.91
2018-09-12T18:58:52.580Z,98368.00
2018-09-12T18:59:57.590Z,98362.14
2018-09-12T19:01:01.239Z,98365.19
2018-09-12T19:02:04.693Z,98369.27
2018-09-12T19:03:07.697Z,98366.35
2018-09-12T19:04:11.161Z,98369.72
2018-09-12T19:05:16.727Z,98371.69
2018-09-12T19:06:28.563Z,98367.62
2018-09-12T19:07:32.957Z,98364.77
2018-09-12T19:08:35.935Z,98365.59
2018-09-12T19:09:38.721Z,98368.64
2018-09-12T19:11:52.874Z,98368.63
2018-09-12T19:12:55.928Z,98367.65
2018-09-12T19:13:59.774Z,98363.39